Auburn, Alabama
Current Conditions -  °F | °C
As of 5:15 PM on Friday 28 Nov 2014 (Local Time) from KAUO Reporting Station
Clear Clear  
Wind Chill:   Ceiling: Unl
Heat Index:   Visibility: 10mi
Dew Point: -7°   Wind: 0mph
Humidity: 37%   Direction: NA
Pressure: 30.32"   Gusts: NA
Location:  32.61°N, 85.48°W
Report Text: KAUO 282315Z AUTO 00000KT 10SM CLR 07/M07 A3032 RMK AO1
Loading
Personal Weather Stations






























Interactive Weather Map New forecast layout! Learn more

10-Day Weather Forecast

Advertisements
Track Severe Weather on mobile